sensor_id;sensor_type;location;lat;lon;timestamp;P1;durP1;ratioP1;P2;durP2;ratioP2
72951;SDS011;61102;51.956;5.878;2022-11-12T00:00:49;5.38;;;1.52;;
72951;SDS011;61102;51.956;5.878;2022-11-12T00:03:34;7.85;;;2.40;;
72951;SDS011;61102;51.956;5.878;2022-11-12T00:06:18;6.07;;;1.90;;
72951;SDS011;61102;51.956;5.878;2022-11-12T00:09:02;6.03;;;1.75;;
72951;SDS011;61102;51.956;5.878;2022-11-12T00:11:47;5.43;;;1.92;;
72951;SDS011;61102;51.956;5.878;2022-11-12T00:14:31;8.10;;;2.30;;
72951;SDS011;61102;51.956;5.878;2022-11-12T00:17:16;6.35;;;1.85;;
72951;SDS011;61102;51.956;5.878;2022-11-12T00:20:01;8.15;;;2.17;;
72951;SDS011;61102;51.956;5.878;2022-11-12T00:22:46;5.20;;;1.52;;
72951;SDS011;61102;51.956;5.878;2022-11-12T00:25:30;5.45;;;1.55;;
72951;SDS011;61102;51.956;5.878;2022-11-12T00:28:15;5.25;;;1.58;;
72951;SDS011;61102;51.956;5.878;2022-11-12T00:31:05;5.68;;;1.58;;
72951;SDS011;61102;51.956;5.878;2022-11-12T00:33:50;6.35;;;2.00;;
72951;SDS011;61102;51.956;5.878;2022-11-12T00:36:35;5.20;;;1.60;;
72951;SDS011;61102;51.956;5.878;2022-11-12T00:39:20;7.25;;;1.60;;
72951;SDS011;61102;51.956;5.878;2022-11-12T00:42:04;5.68;;;1.50;;
72951;SDS011;61102;51.956;5.878;2022-11-12T00:44:48;6.22;;;2.00;;
72951;SDS011;61102;51.956;5.878;2022-11-12T00:47:33;5.85;;;1.80;;
72951;SDS011;61102;51.956;5.878;2022-11-12T00:50:17;6.18;;;1.77;;
72951;SDS011;61102;51.956;5.878;2022-11-12T00:53:02;5.32;;;1.67;;
72951;SDS011;61102;51.956;5.878;2022-11-12T00:55:49;7.18;;;2.40;;
72951;SDS011;61102;51.956;5.878;2022-11-12T00:58:34;6.68;;;2.00;;
72951;SDS011;61102;51.956;5.878;2022-11-12T01:01:19;5.90;;;1.83;;
72951;SDS011;61102;51.956;5.878;2022-11-12T01:04:04;6.80;;;2.13;;
72951;SDS011;61102;51.956;5.878;2022-11-12T01:06:49;6.70;;;1.92;;
72951;SDS011;61102;51.956;5.878;2022-11-12T01:09:33;7.25;;;2.00;;
72951;SDS011;61102;51.956;5.878;2022-11-12T01:12:18;5.47;;;1.60;;
72951;SDS011;61102;51.956;5.878;2022-11-12T01:15:04;6.13;;;1.70;;
72951;SDS011;61102;51.956;5.878;2022-11-12T01:17:50;6.05;;;1.70;;
72951;SDS011;61102;51.956;5.878;2022-11-12T01:20:35;6.65;;;1.70;;
72951;SDS011;61102;51.956;5.878;2022-11-12T01:23:22;6.72;;;1.70;;
72951;SDS011;61102;51.956;5.878;2022-11-12T01:26:08;6.95;;;2.10;;
72951;SDS011;61102;51.956;5.878;2022-11-12T01:28:54;6.53;;;2.00;;
72951;SDS011;61102;51.956;5.878;2022-11-12T01:31:38;5.03;;;1.58;;
72951;SDS011;61102;51.956;5.878;2022-11-12T01:34:23;6.00;;;1.73;;
72951;SDS011;61102;51.956;5.878;2022-11-12T01:37:09;5.88;;;1.80;;
72951;SDS011;61102;51.956;5.878;2022-11-12T01:39:54;6.55;;;2.08;;
72951;SDS011;61102;51.956;5.878;2022-11-12T01:42:39;6.85;;;1.95;;
72951;SDS011;61102;51.956;5.878;2022-11-12T01:45:23;8.20;;;3.17;;
72951;SDS011;61102;51.956;5.878;2022-11-12T01:48:11;7.07;;;2.22;;
72951;SDS011;61102;51.956;5.878;2022-11-12T01:51:09;6.72;;;1.98;;
72951;SDS011;61102;51.956;5.878;2022-11-12T01:53:55;5.88;;;1.60;;
72951;SDS011;61102;51.956;5.878;2022-11-12T01:56:43;5.80;;;1.90;;
72951;SDS011;61102;51.956;5.878;2022-11-12T01:59:30;6.68;;;2.13;;
72951;SDS011;61102;51.956;5.878;2022-11-12T02:02:20;5.43;;;1.60;;
72951;SDS011;61102;51.956;5.878;2022-11-12T02:05:06;6.03;;;1.80;;
72951;SDS011;61102;51.956;5.878;2022-11-12T02:07:53;6.53;;;1.98;;
72951;SDS011;61102;51.956;5.878;2022-11-12T02:10:40;7.53;;;2.20;;
72951;SDS011;61102;51.956;5.878;2022-11-12T02:13:24;5.50;;;1.70;;
72951;SDS011;61102;51.956;5.878;2022-11-12T02:19:15;6.22;;;2.00;;
72951;SDS011;61102;51.956;5.878;2022-11-12T02:22:00;5.97;;;1.98;;
72951;SDS011;61102;51.956;5.878;2022-11-12T02:24:45;6.35;;;1.70;;
72951;SDS011;61102;51.956;5.878;2022-11-12T02:27:31;7.45;;;2.10;;
72951;SDS011;61102;51.956;5.878;2022-11-12T02:30:16;6.78;;;2.22;;
72951;SDS011;61102;51.956;5.878;2022-11-12T02:33:03;5.75;;;1.70;;
72951;SDS011;61102;51.956;5.878;2022-11-12T02:35:48;6.65;;;1.90;;
72951;SDS011;61102;51.956;5.878;2022-11-12T02:38:32;6.00;;;1.60;;
72951;SDS011;61102;51.956;5.878;2022-11-12T02:41:17;5.30;;;1.67;;
72951;SDS011;61102;51.956;5.878;2022-11-12T02:44:01;7.00;;;2.22;;
72951;SDS011;61102;51.956;5.878;2022-11-12T02:46:46;5.80;;;1.70;;
72951;SDS011;61102;51.956;5.878;2022-11-12T02:49:30;7.63;;;1.80;;
72951;SDS011;61102;51.956;5.878;2022-11-12T02:52:15;6.95;;;2.20;;
72951;SDS011;61102;51.956;5.878;2022-11-12T02:54:59;6.57;;;1.90;;
72951;SDS011;61102;51.956;5.878;2022-11-12T02:57:43;5.43;;;1.60;;
72951;SDS011;61102;51.956;5.878;2022-11-12T03:00:28;6.25;;;2.10;;
72951;SDS011;61102;51.956;5.878;2022-11-12T03:03:12;7.00;;;2.00;;
72951;SDS011;61102;51.956;5.878;2022-11-12T03:05:58;8.38;;;2.38;;
72951;SDS011;61102;51.956;5.878;2022-11-12T03:08:44;6.85;;;1.92;;
72951;SDS011;61102;51.956;5.878;2022-11-12T03:11:28;5.65;;;1.73;;
72951;SDS011;61102;51.956;5.878;2022-11-12T03:14:13;6.10;;;1.80;;
72951;SDS011;61102;51.956;5.878;2022-11-12T03:16:58;7.07;;;2.00;;
72951;SDS011;61102;51.956;5.878;2022-11-12T03:19:42;6.28;;;1.90;;
72951;SDS011;61102;51.956;5.878;2022-11-12T03:22:26;6.28;;;1.80;;
72951;SDS011;61102;51.956;5.878;2022-11-12T03:25:11;6.20;;;1.77;;
72951;SDS011;61102;51.956;5.878;2022-11-12T03:27:56;8.02;;;2.20;;
72951;SDS011;61102;51.956;5.878;2022-11-12T03:31:02;5.68;;;1.60;;
72951;SDS011;61102;51.956;5.878;2022-11-12T03:33:47;6.03;;;1.70;;
72951;SDS011;61102;51.956;5.878;2022-11-12T03:36:31;5.50;;;1.45;;
72951;SDS011;61102;51.956;5.878;2022-11-12T03:39:16;6.00;;;1.70;;
72951;SDS011;61102;51.956;5.878;2022-11-12T03:42:01;6.13;;;1.70;;
72951;SDS011;61102;51.956;5.878;2022-11-12T03:44:46;6.22;;;2.00;;
72951;SDS011;61102;51.956;5.878;2022-11-12T03:47:30;6.18;;;1.70;;
72951;SDS011;61102;51.956;5.878;2022-11-12T03:50:16;5.38;;;1.73;;
72951;SDS011;61102;51.956;5.878;2022-11-12T03:53:02;5.93;;;1.75;;
72951;SDS011;61102;51.956;5.878;2022-11-12T03:55:47;5.70;;;1.63;;
72951;SDS011;61102;51.956;5.878;2022-11-12T03:58:31;6.22;;;1.70;;
72951;SDS011;61102;51.956;5.878;2022-11-12T04:01:16;5.68;;;1.50;;
72951;SDS011;61102;51.956;5.878;2022-11-12T04:04:01;6.15;;;1.80;;
72951;SDS011;61102;51.956;5.878;2022-11-12T04:06:45;5.68;;;1.77;;
72951;SDS011;61102;51.956;5.878;2022-11-12T04:09:49;5.60;;;1.60;;
72951;SDS011;61102;51.956;5.878;2022-11-12T04:12:33;5.50;;;1.65;;
72951;SDS011;61102;51.956;5.878;2022-11-12T04:15:37;7.97;;;2.40;;
72951;SDS011;61102;51.956;5.878;2022-11-12T04:18:21;8.40;;;2.80;;
72951;SDS011;61102;51.956;5.878;2022-11-12T04:21:32;6.22;;;2.05;;
72951;SDS011;61102;51.956;5.878;2022-11-12T04:24:36;5.88;;;1.60;;
72951;SDS011;61102;51.956;5.878;2022-11-12T04:27:43;6.18;;;1.50;;
72951;SDS011;61102;51.956;5.878;2022-11-12T04:30:27;5.25;;;1.42;;
72951;SDS011;61102;51.956;5.878;2022-11-12T04:33:12;8.57;;;1.80;;
72951;SDS011;61102;51.956;5.878;2022-11-12T04:35:57;5.32;;;1.50;;
72951;SDS011;61102;51.956;5.878;2022-11-12T04:38:41;5.90;;;2.00;;
72951;SDS011;61102;51.956;5.878;2022-11-12T04:41:25;5.32;;;1.48;;
72951;SDS011;61102;51.956;5.878;2022-11-12T04:44:29;4.68;;;1.48;;
72951;SDS011;61102;51.956;5.878;2022-11-12T04:47:36;6.47;;;1.67;;
72951;SDS011;61102;51.956;5.878;2022-11-12T04:50:22;4.55;;;1.40;;
72951;SDS011;61102;51.956;5.878;2022-11-12T04:53:07;5.50;;;1.35;;
72951;SDS011;61102;51.956;5.878;2022-11-12T04:55:52;5.28;;;1.33;;
72951;SDS011;61102;51.956;5.878;2022-11-12T05:01:23;4.10;;;1.20;;
72951;SDS011;61102;51.956;5.878;2022-11-12T05:04:08;5.55;;;1.50;;
72951;SDS011;61102;51.956;5.878;2022-11-12T05:06:52;6.15;;;1.27;;
72951;SDS011;61102;51.956;5.878;2022-11-12T05:09:38;4.22;;;1.40;;
72951;SDS011;61102;51.956;5.878;2022-11-12T05:12:23;4.85;;;1.60;;
72951;SDS011;61102;51.956;5.878;2022-11-12T05:15:08;5.40;;;1.50;;
72951;SDS011;61102;51.956;5.878;2022-11-12T05:17:54;5.10;;;1.25;;
72951;SDS011;61102;51.956;5.878;2022-11-12T05:20:39;4.85;;;1.35;;
72951;SDS011;61102;51.956;5.878;2022-11-12T05:23:23;4.15;;;1.13;;
72951;SDS011;61102;51.956;5.878;2022-11-12T05:26:07;5.05;;;1.50;;
72951;SDS011;61102;51.956;5.878;2022-11-12T05:28:51;5.65;;;1.35;;
72951;SDS011;61102;51.956;5.878;2022-11-12T05:31:36;5.38;;;1.52;;
72951;SDS011;61102;51.956;5.878;2022-11-12T05:34:20;6.13;;;1.20;;
72951;SDS011;61102;51.956;5.878;2022-11-12T05:37:06;5.38;;;1.50;;
72951;SDS011;61102;51.956;5.878;2022-11-12T05:39:51;5.82;;;1.70;;
72951;SDS011;61102;51.956;5.878;2022-11-12T05:42:36;5.32;;;1.50;;
72951;SDS011;61102;51.956;5.878;2022-11-12T05:45:20;4.38;;;1.17;;
72951;SDS011;61102;51.956;5.878;2022-11-12T05:48:04;4.75;;;1.30;;
72951;SDS011;61102;51.956;5.878;2022-11-12T05:50:50;3.05;;;0.98;;
72951;SDS011;61102;51.956;5.878;2022-11-12T05:53:35;7.10;;;1.85;;
72951;SDS011;61102;51.956;5.878;2022-11-12T05:56:20;3.50;;;1.10;;
72951;SDS011;61102;51.956;5.878;2022-11-12T05:59:06;3.75;;;1.27;;
72951;SDS011;61102;51.956;5.878;2022-11-12T06:01:52;4.95;;;1.30;;
72951;SDS011;61102;51.956;5.878;2022-11-12T06:04:38;5.28;;;1.50;;
72951;SDS011;61102;51.956;5.878;2022-11-12T06:07:22;5.05;;;1.60;;
72951;SDS011;61102;51.956;5.878;2022-11-12T06:10:07;5.85;;;1.45;;
72951;SDS011;61102;51.956;5.878;2022-11-12T06:12:52;3.95;;;1.20;;
72951;SDS011;61102;51.956;5.878;2022-11-12T06:15:36;5.22;;;1.55;;
72951;SDS011;61102;51.956;5.878;2022-11-12T06:18:22;4.43;;;1.45;;
72951;SDS011;61102;51.956;5.878;2022-11-12T06:21:08;6.00;;;1.40;;
72951;SDS011;61102;51.956;5.878;2022-11-12T06:24:03;4.28;;;1.20;;
72951;SDS011;61102;51.956;5.878;2022-11-12T06:26:48;4.22;;;1.13;;
72951;SDS011;61102;51.956;5.878;2022-11-12T06:29:32;3.88;;;1.00;;
72951;SDS011;61102;51.956;5.878;2022-11-12T06:32:18;4.47;;;1.20;;
72951;SDS011;61102;51.956;5.878;2022-11-12T06:35:02;4.60;;;1.35;;
72951;SDS011;61102;51.956;5.878;2022-11-12T06:37:48;4.90;;;1.30;;
72951;SDS011;61102;51.956;5.878;2022-11-12T06:40:32;6.30;;;1.73;;
72951;SDS011;61102;51.956;5.878;2022-11-12T06:43:18;3.67;;;1.17;;
72951;SDS011;61102;51.956;5.878;2022-11-12T06:46:03;4.07;;;1.10;;
72951;SDS011;61102;51.956;5.878;2022-11-12T06:48:50;5.75;;;1.90;;
72951;SDS011;61102;51.956;5.878;2022-11-12T06:51:35;4.65;;;1.65;;
72951;SDS011;61102;51.956;5.878;2022-11-12T06:54:19;3.25;;;1.10;;
72951;SDS011;61102;51.956;5.878;2022-11-12T06:57:04;3.83;;;1.02;;
72951;SDS011;61102;51.956;5.878;2022-11-12T06:59:48;6.07;;;1.50;;
72951;SDS011;61102;51.956;5.878;2022-11-12T07:02:33;3.92;;;1.17;;
72951;SDS011;61102;51.956;5.878;2022-11-12T07:05:17;4.25;;;1.10;;
72951;SDS011;61102;51.956;5.878;2022-11-12T07:08:02;4.82;;;1.33;;
72951;SDS011;61102;51.956;5.878;2022-11-12T07:10:48;3.63;;;1.10;;
72951;SDS011;61102;51.956;5.878;2022-11-12T07:13:33;4.65;;;1.25;;
72951;SDS011;61102;51.956;5.878;2022-11-12T07:16:18;4.68;;;1.45;;
72951;SDS011;61102;51.956;5.878;2022-11-12T07:19:03;5.05;;;1.60;;
72951;SDS011;61102;51.956;5.878;2022-11-12T07:21:48;3.20;;;1.00;;
72951;SDS011;61102;51.956;5.878;2022-11-12T07:24:32;4.75;;;1.40;;
72951;SDS011;61102;51.956;5.878;2022-11-12T07:27:17;4.50;;;1.38;;
72951;SDS011;61102;51.956;5.878;2022-11-12T07:30:01;3.40;;;1.00;;
72951;SDS011;61102;51.956;5.878;2022-11-12T07:32:46;3.42;;;1.00;;
72951;SDS011;61102;51.956;5.878;2022-11-12T07:35:30;4.93;;;1.40;;
72951;SDS011;61102;51.956;5.878;2022-11-12T07:38:15;4.72;;;1.23;;
72951;SDS011;61102;51.956;5.878;2022-11-12T07:43:49;4.32;;;1.25;;
72951;SDS011;61102;51.956;5.878;2022-11-12T07:46:35;3.58;;;1.00;;
72951;SDS011;61102;51.956;5.878;2022-11-12T07:49:19;6.50;;;1.80;;
72951;SDS011;61102;51.956;5.878;2022-11-12T07:52:04;6.20;;;1.80;;
72951;SDS011;61102;51.956;5.878;2022-11-12T07:54:48;5.65;;;1.30;;
72951;SDS011;61102;51.956;5.878;2022-11-12T07:57:33;4.78;;;1.33;;
72951;SDS011;61102;51.956;5.878;2022-11-12T08:00:21;4.10;;;1.20;;
72951;SDS011;61102;51.956;5.878;2022-11-12T08:03:06;4.82;;;1.33;;
72951;SDS011;61102;51.956;5.878;2022-11-12T08:06:00;3.30;;;1.02;;
72951;SDS011;61102;51.956;5.878;2022-11-12T08:08:44;4.38;;;1.30;;
72951;SDS011;61102;51.956;5.878;2022-11-12T08:11:30;3.50;;;1.10;;
72951;SDS011;61102;51.956;5.878;2022-11-12T08:14:15;4.07;;;1.15;;
72951;SDS011;61102;51.956;5.878;2022-11-12T08:17:00;5.07;;;1.33;;
72951;SDS011;61102;51.956;5.878;2022-11-12T08:19:44;4.35;;;1.23;;
72951;SDS011;61102;51.956;5.878;2022-11-12T08:22:29;4.13;;;1.10;;
72951;SDS011;61102;51.956;5.878;2022-11-12T08:25:15;3.58;;;1.10;;
72951;SDS011;61102;51.956;5.878;2022-11-12T08:28:00;4.45;;;1.17;;
72951;SDS011;61102;51.956;5.878;2022-11-12T08:30:44;3.72;;;1.10;;
72951;SDS011;61102;51.956;5.878;2022-11-12T08:33:30;3.33;;;1.10;;
72951;SDS011;61102;51.956;5.878;2022-11-12T08:36:15;5.47;;;1.45;;
72951;SDS011;61102;51.956;5.878;2022-11-12T08:39:00;5.05;;;1.70;;
72951;SDS011;61102;51.956;5.878;2022-11-12T08:41:48;5.07;;;1.33;;
72951;SDS011;61102;51.956;5.878;2022-11-12T08:44:32;5.03;;;1.42;;
72951;SDS011;61102;51.956;5.878;2022-11-12T08:47:17;4.97;;;1.50;;
72951;SDS011;61102;51.956;5.878;2022-11-12T08:50:02;5.60;;;1.80;;
72951;SDS011;61102;51.956;5.878;2022-11-12T08:52:47;6.45;;;1.92;;
72951;SDS011;61102;51.956;5.878;2022-11-12T08:55:32;5.75;;;2.10;;
72951;SDS011;61102;51.956;5.878;2022-11-12T08:58:17;4.32;;;1.35;;
72951;SDS011;61102;51.956;5.878;2022-11-12T09:01:05;6.20;;;1.90;;
72951;SDS011;61102;51.956;5.878;2022-11-12T09:03:50;5.80;;;1.83;;
72951;SDS011;61102;51.956;5.878;2022-11-12T09:06:34;6.75;;;2.10;;
72951;SDS011;61102;51.956;5.878;2022-11-12T09:09:19;7.03;;;2.53;;
72951;SDS011;61102;51.956;5.878;2022-11-12T09:12:04;5.60;;;1.73;;
72951;SDS011;61102;51.956;5.878;2022-11-12T09:14:49;4.30;;;1.50;;
72951;SDS011;61102;51.956;5.878;2022-11-12T09:17:34;3.92;;;1.27;;
72951;SDS011;61102;51.956;5.878;2022-11-12T09:20:18;6.40;;;2.22;;
72951;SDS011;61102;51.956;5.878;2022-11-12T09:23:05;6.53;;;2.08;;
72951;SDS011;61102;51.956;5.878;2022-11-12T09:25:54;5.07;;;1.60;;
72951;SDS011;61102;51.956;5.878;2022-11-12T09:28:40;4.60;;;1.60;;
72951;SDS011;61102;51.956;5.878;2022-11-12T09:31:24;5.15;;;1.58;;
72951;SDS011;61102;51.956;5.878;2022-11-12T09:34:10;6.38;;;1.50;;
72951;SDS011;61102;51.956;5.878;2022-11-12T09:36:55;6.70;;;1.38;;
72951;SDS011;61102;51.956;5.878;2022-11-12T09:39:40;4.00;;;1.27;;
72951;SDS011;61102;51.956;5.878;2022-11-12T09:42:25;6.78;;;1.60;;
72951;SDS011;61102;51.956;5.878;2022-11-12T09:45:17;4.13;;;1.35;;
72951;SDS011;61102;51.956;5.878;2022-11-12T09:48:10;6.43;;;1.90;;
72951;SDS011;61102;51.956;5.878;2022-11-12T09:50:59;4.70;;;1.35;;
72951;SDS011;61102;51.956;5.878;2022-11-12T09:53:51;5.20;;;1.60;;
72951;SDS011;61102;51.956;5.878;2022-11-12T09:56:39;5.88;;;1.80;;
72951;SDS011;61102;51.956;5.878;2022-11-12T09:59:30;4.95;;;1.55;;
72951;SDS011;61102;51.956;5.878;2022-11-12T10:24:40;6.90;;;2.25;;
72951;SDS011;61102;51.956;5.878;2022-11-12T10:27:30;6.43;;;2.03;;
72951;SDS011;61102;51.956;5.878;2022-11-12T10:30:19;6.10;;;1.42;;
72951;SDS011;61102;51.956;5.878;2022-11-12T10:33:09;5.05;;;1.88;;
72951;SDS011;61102;51.956;5.878;2022-11-12T10:36:08;8.43;;;3.03;;
72951;SDS011;61102;51.956;5.878;2022-11-12T10:39:00;5.43;;;1.80;;
72951;SDS011;61102;51.956;5.878;2022-11-12T10:41:45;5.80;;;1.83;;
72951;SDS011;61102;51.956;5.878;2022-11-12T10:44:29;8.68;;;1.73;;
72951;SDS011;61102;51.956;5.878;2022-11-12T10:53:00;7.97;;;2.15;;
72951;SDS011;61102;51.956;5.878;2022-11-12T10:55:54;4.78;;;1.45;;
72951;SDS011;61102;51.956;5.878;2022-11-12T10:58:41;4.95;;;1.65;;
72951;SDS011;61102;51.956;5.878;2022-11-12T11:01:25;5.07;;;1.50;;
72951;SDS011;61102;51.956;5.878;2022-11-12T11:07:23;5.15;;;1.52;;
72951;SDS011;61102;51.956;5.878;2022-11-12T11:13:18;5.88;;;2.20;;
72951;SDS011;61102;51.956;5.878;2022-11-12T11:16:05;3.65;;;1.42;;
72951;SDS011;61102;51.956;5.878;2022-11-12T11:19:02;5.93;;;1.67;;
72951;SDS011;61102;51.956;5.878;2022-11-12T11:30:21;4.18;;;1.40;;
72951;SDS011;61102;51.956;5.878;2022-11-12T11:36:20;6.78;;;2.28;;
72951;SDS011;61102;51.956;5.878;2022-11-12T11:55:10;4.88;;;1.65;;
72951;SDS011;61102;51.956;5.878;2022-11-12T12:04:22;3.70;;;1.20;;
72951;SDS011;61102;51.956;5.878;2022-11-12T12:07:36;5.65;;;1.50;;
72951;SDS011;61102;51.956;5.878;2022-11-12T12:10:40;3.63;;;1.20;;
72951;SDS011;61102;51.956;5.878;2022-11-12T12:19:55;5.28;;;1.50;;
72951;SDS011;61102;51.956;5.878;2022-11-12T12:22:49;4.43;;;1.48;;
72951;SDS011;61102;51.956;5.878;2022-11-12T12:25:42;4.28;;;1.20;;
72951;SDS011;61102;51.956;5.878;2022-11-12T12:31:28;2.78;;;1.13;;
72951;SDS011;61102;51.956;5.878;2022-11-12T12:34:19;5.78;;;2.00;;
72951;SDS011;61102;51.956;5.878;2022-11-12T12:37:26;3.28;;;1.17;;
72951;SDS011;61102;51.956;5.878;2022-11-12T12:40:34;3.50;;;1.02;;
72951;SDS011;61102;51.956;5.878;2022-11-12T12:43:32;4.55;;;1.35;;
72951;SDS011;61102;51.956;5.878;2022-11-12T12:46:22;6.03;;;1.58;;
72951;SDS011;61102;51.956;5.878;2022-11-12T12:49:13;5.03;;;1.90;;
72951;SDS011;61102;51.956;5.878;2022-11-12T12:52:01;3.50;;;1.13;;
72951;SDS011;61102;51.956;5.878;2022-11-12T12:57:31;4.50;;;1.35;;
72951;SDS011;61102;51.956;5.878;2022-11-12T13:09:29;6.90;;;1.70;;
72951;SDS011;61102;51.956;5.878;2022-11-12T13:15:08;5.15;;;1.30;;
72951;SDS011;61102;51.956;5.878;2022-11-12T13:17:56;5.03;;;1.40;;
72951;SDS011;61102;51.956;5.878;2022-11-12T13:20:40;8.05;;;2.13;;
72951;SDS011;61102;51.956;5.878;2022-11-12T13:26:54;4.72;;;1.27;;
72951;SDS011;61102;51.956;5.878;2022-11-12T13:29:41;5.00;;;1.40;;
72951;SDS011;61102;51.956;5.878;2022-11-12T13:32:27;4.20;;;1.50;;
72951;SDS011;61102;51.956;5.878;2022-11-12T13:43:42;6.10;;;1.80;;
72951;SDS011;61102;51.956;5.878;2022-11-12T13:46:31;6.30;;;1.33;;
72951;SDS011;61102;51.956;5.878;2022-11-12T13:49:20;4.97;;;1.45;;
72951;SDS011;61102;51.956;5.878;2022-11-12T13:52:05;5.38;;;1.70;;
72951;SDS011;61102;51.956;5.878;2022-11-12T13:55:06;3.40;;;1.05;;
72951;SDS011;61102;51.956;5.878;2022-11-12T13:57:57;3.80;;;1.10;;
72951;SDS011;61102;51.956;5.878;2022-11-12T14:00:49;4.88;;;1.48;;
72951;SDS011;61102;51.956;5.878;2022-11-12T14:03:42;6.63;;;1.55;;
72951;SDS011;61102;51.956;5.878;2022-11-12T14:06:30;4.05;;;1.20;;
72951;SDS011;61102;51.956;5.878;2022-11-12T14:25:00;3.25;;;1.23;;
72951;SDS011;61102;51.956;5.878;2022-11-12T14:27:46;3.58;;;1.17;;
72951;SDS011;61102;51.956;5.878;2022-11-12T14:30:32;4.45;;;1.48;;
72951;SDS011;61102;51.956;5.878;2022-11-12T14:33:18;3.15;;;1.02;;
72951;SDS011;61102;51.956;5.878;2022-11-12T14:36:11;4.68;;;1.30;;
72951;SDS011;61102;51.956;5.878;2022-11-12T14:38:58;4.00;;;1.20;;
72951;SDS011;61102;51.956;5.878;2022-11-12T14:41:42;4.20;;;1.20;;
72951;SDS011;61102;51.956;5.878;2022-11-12T14:44:34;4.22;;;1.30;;
72951;SDS011;61102;51.956;5.878;2022-11-12T14:47:21;3.88;;;1.30;;
72951;SDS011;61102;51.956;5.878;2022-11-12T14:50:51;3.65;;;1.10;;
72951;SDS011;61102;51.956;5.878;2022-11-12T14:53:21;3.67;;;1.30;;
72951;SDS011;61102;51.956;5.878;2022-11-12T14:56:11;3.67;;;0.93;;
72951;SDS011;61102;51.956;5.878;2022-11-12T14:59:09;3.28;;;0.95;;
72951;SDS011;61102;51.956;5.878;2022-11-12T15:05:25;3.67;;;1.00;;
72951;SDS011;61102;51.956;5.878;2022-11-12T15:08:04;3.20;;;0.93;;
72951;SDS011;61102;51.956;5.878;2022-11-12T15:10:53;4.20;;;1.00;;
72951;SDS011;61102;51.956;5.878;2022-11-12T15:13:39;3.58;;;1.13;;
72951;SDS011;61102;51.956;5.878;2022-11-12T15:22:24;3.88;;;1.00;;
72951;SDS011;61102;51.956;5.878;2022-11-12T15:25:20;4.18;;;1.40;;
72951;SDS011;61102;51.956;5.878;2022-11-12T15:28:13;6.70;;;1.30;;
72951;SDS011;61102;51.956;5.878;2022-11-12T15:31:07;4.90;;;1.40;;
72951;SDS011;61102;51.956;5.878;2022-11-12T15:34:23;3.55;;;1.00;;
72951;SDS011;61102;51.956;5.878;2022-11-12T15:37:23;2.65;;;1.00;;
72951;SDS011;61102;51.956;5.878;2022-11-12T15:40:11;3.88;;;0.90;;
72951;SDS011;61102;51.956;5.878;2022-11-12T15:43:02;3.88;;;1.00;;
72951;SDS011;61102;51.956;5.878;2022-11-12T15:45:47;3.15;;;0.98;;
72951;SDS011;61102;51.956;5.878;2022-11-12T15:48:33;2.78;;;0.80;;
72951;SDS011;61102;51.956;5.878;2022-11-12T15:51:17;3.38;;;1.10;;
72951;SDS011;61102;51.956;5.878;2022-11-12T15:54:03;3.35;;;0.90;;
72951;SDS011;61102;51.956;5.878;2022-11-12T15:56:48;3.97;;;1.23;;
72951;SDS011;61102;51.956;5.878;2022-11-12T15:59:33;3.85;;;1.15;;
72951;SDS011;61102;51.956;5.878;2022-11-12T16:02:18;4.13;;;1.10;;
72951;SDS011;61102;51.956;5.878;2022-11-12T16:05:02;3.30;;;0.95;;
72951;SDS011;61102;51.956;5.878;2022-11-12T16:07:47;4.85;;;1.33;;
72951;SDS011;61102;51.956;5.878;2022-11-12T16:10:32;4.28;;;1.40;;
72951;SDS011;61102;51.956;5.878;2022-11-12T16:13:30;5.03;;;1.33;;
72951;SDS011;61102;51.956;5.878;2022-11-12T16:16:18;3.95;;;1.20;;
72951;SDS011;61102;51.956;5.878;2022-11-12T16:19:03;3.03;;;1.00;;
72951;SDS011;61102;51.956;5.878;2022-11-12T16:21:54;4.05;;;1.20;;
72951;SDS011;61102;51.956;5.878;2022-11-12T16:24:39;7.60;;;2.42;;
72951;SDS011;61102;51.956;5.878;2022-11-12T16:27:24;6.97;;;1.80;;
72951;SDS011;61102;51.956;5.878;2022-11-12T16:30:16;5.22;;;1.50;;
72951;SDS011;61102;51.956;5.878;2022-11-12T16:33:03;5.65;;;1.50;;
72951;SDS011;61102;51.956;5.878;2022-11-12T16:35:47;5.50;;;1.48;;
72951;SDS011;61102;51.956;5.878;2022-11-12T16:38:32;5.20;;;1.40;;
72951;SDS011;61102;51.956;5.878;2022-11-12T16:41:17;5.35;;;1.58;;
72951;SDS011;61102;51.956;5.878;2022-11-12T16:44:01;5.25;;;1.35;;
72951;SDS011;61102;51.956;5.878;2022-11-12T16:46:46;6.22;;;1.60;;
72951;SDS011;61102;51.956;5.878;2022-11-12T16:49:31;6.45;;;1.60;;
72951;SDS011;61102;51.956;5.878;2022-11-12T16:52:15;6.80;;;1.75;;
72951;SDS011;61102;51.956;5.878;2022-11-12T16:55:00;4.35;;;1.38;;
72951;SDS011;61102;51.956;5.878;2022-11-12T16:57:45;6.55;;;1.40;;
72951;SDS011;61102;51.956;5.878;2022-11-12T17:00:30;4.55;;;1.38;;
72951;SDS011;61102;51.956;5.878;2022-11-12T17:03:14;5.38;;;1.30;;
72951;SDS011;61102;51.956;5.878;2022-11-12T17:05:59;4.20;;;1.20;;
72951;SDS011;61102;51.956;5.878;2022-11-12T17:08:43;4.20;;;1.10;;
72951;SDS011;61102;51.956;5.878;2022-11-12T17:11:30;6.07;;;1.25;;
72951;SDS011;61102;51.956;5.878;2022-11-12T17:14:15;4.25;;;1.10;;
72951;SDS011;61102;51.956;5.878;2022-11-12T17:17:01;5.78;;;1.58;;
72951;SDS011;61102;51.956;5.878;2022-11-12T17:19:46;4.10;;;1.17;;
72951;SDS011;61102;51.956;5.878;2022-11-12T17:22:30;5.22;;;1.20;;
72951;SDS011;61102;51.956;5.878;2022-11-12T17:25:15;7.07;;;1.70;;
72951;SDS011;61102;51.956;5.878;2022-11-12T17:28:00;5.97;;;1.63;;
72951;SDS011;61102;51.956;5.878;2022-11-12T17:30:45;6.10;;;1.90;;
72951;SDS011;61102;51.956;5.878;2022-11-12T17:33:29;9.73;;;3.38;;
72951;SDS011;61102;51.956;5.878;2022-11-12T17:36:14;9.50;;;3.78;;
72951;SDS011;61102;51.956;5.878;2022-11-12T17:39:03;8.40;;;3.33;;
72951;SDS011;61102;51.956;5.878;2022-11-12T17:41:54;8.07;;;2.65;;
72951;SDS011;61102;51.956;5.878;2022-11-12T17:44:39;8.50;;;2.50;;
72951;SDS011;61102;51.956;5.878;2022-11-12T17:47:23;9.57;;;3.00;;
72951;SDS011;61102;51.956;5.878;2022-11-12T17:50:08;7.38;;;2.70;;
72951;SDS011;61102;51.956;5.878;2022-11-12T17:52:53;7.25;;;2.20;;
72951;SDS011;61102;51.956;5.878;2022-11-12T17:55:37;7.60;;;2.05;;
72951;SDS011;61102;51.956;5.878;2022-11-12T17:58:21;7.40;;;2.47;;
72951;SDS011;61102;51.956;5.878;2022-11-12T18:01:14;7.38;;;2.50;;
72951;SDS011;61102;51.956;5.878;2022-11-12T18:04:04;5.70;;;1.92;;
72951;SDS011;61102;51.956;5.878;2022-11-12T18:06:51;8.45;;;2.33;;
72951;SDS011;61102;51.956;5.878;2022-11-12T18:09:36;8.68;;;2.65;;
72951;SDS011;61102;51.956;5.878;2022-11-12T18:12:20;9.02;;;2.38;;
72951;SDS011;61102;51.956;5.878;2022-11-12T18:15:08;6.85;;;2.38;;
72951;SDS011;61102;51.956;5.878;2022-11-12T18:17:53;9.00;;;2.75;;
72951;SDS011;61102;51.956;5.878;2022-11-12T18:20:38;7.63;;;2.42;;
72951;SDS011;61102;51.956;5.878;2022-11-12T18:23:24;7.65;;;2.53;;
72951;SDS011;61102;51.956;5.878;2022-11-12T18:26:09;8.38;;;2.53;;
72951;SDS011;61102;51.956;5.878;2022-11-12T18:28:57;8.23;;;2.85;;
72951;SDS011;61102;51.956;5.878;2022-11-12T18:31:42;9.45;;;3.28;;
72951;SDS011;61102;51.956;5.878;2022-11-12T18:34:28;9.05;;;2.70;;
72951;SDS011;61102;51.956;5.878;2022-11-12T18:37:12;7.68;;;2.28;;
72951;SDS011;61102;51.956;5.878;2022-11-12T18:39:57;9.07;;;3.00;;
72951;SDS011;61102;51.956;5.878;2022-11-12T18:42:42;6.68;;;2.30;;
72951;SDS011;61102;51.956;5.878;2022-11-12T18:45:26;6.63;;;2.22;;
72951;SDS011;61102;51.956;5.878;2022-11-12T18:48:11;7.45;;;2.45;;
72951;SDS011;61102;51.956;5.878;2022-11-12T18:50:56;12.63;;;5.88;;
72951;SDS011;61102;51.956;5.878;2022-11-12T18:53:50;14.15;;;6.82;;
72951;SDS011;61102;51.956;5.878;2022-11-12T18:56:35;10.32;;;4.22;;
72951;SDS011;61102;51.956;5.878;2022-11-12T18:59:23;12.02;;;5.25;;
72951;SDS011;61102;51.956;5.878;2022-11-12T19:02:13;10.07;;;4.05;;
72951;SDS011;61102;51.956;5.878;2022-11-12T19:04:58;9.43;;;3.55;;